Terminal Aerodrome Forecast
Issued by NWS

Home | Current Version | Previous Version | Graphics & Text | Print | Product List | Glossary On
Versions: 1 2 3 4 5 6 7 8 9 10 11 12 13 14 15 16 17 18 19 20 21 22 23 24 25 26 27 28 29 30 31 32 33 34
000
FTUS43 KLOT 131700
TAFDPA
TAF
KDPA 131740Z 1318/1418 05008KT 6SM BR SCT007 BKN090
     FM131900 06008KT 5SM -SHRA BR BKN007 BKN025
      TEMPO 1320/1323 3SM -TSRA OVC007CB
     FM132300 08010KT 3SM SHRA BR OVC007
      TEMPO 1323/1401 2SM -TSRA OVC009CB
     FM140300 21012G18KT 4SM SHRA VCTS OVC009CB
     FM140900 36018G26KT 4SM RA BR OVC009
     FM141500 35016G26KT 6SM -RA OVC015=

USA.gov is the U.S. government's official web portal to all federal, state and local government web resources and services.